N527BF KSPG-
Flight info
| Callsign | N527BF |
|---|---|
| Flight time | N/A |
| Altitude | |
| Route | |
| Aircraft | EC13/L-VGD/C |
Departure
| Time | 2026-05-03 21:57 |
|---|---|
| Airport | Albert Whitted Airport (KSPG) |
Arrival
| Time | N/A |
|---|---|
| Airport | - |
| Time | Latitude | Longitude | Altitude | Speed | Heading |
|---|---|---|---|---|---|
| 2026-05-03 21:52 | 27.76328 | -82.63192 | 6 ft | 0 kts | 339° |
| 2026-05-03 21:53 | 27.76329 | -82.63192 | 8 ft | 0 kts | 334° |
| 2026-05-03 21:53 | 27.76340 | -82.63203 | 7 ft | 2 kts | 284° |
| 2026-05-03 21:53 | 27.76341 | -82.63214 | 7 ft | 0 kts | 296° |
| 2026-05-03 21:54 | 27.76342 | -82.63218 | 7 ft | 0 kts | 310° |
| 2026-05-03 21:54 | 27.76342 | -82.63220 | 6 ft | 3 kts | 328° |
| 2026-05-03 21:54 | 27.76370 | -82.63236 | 6 ft | 1 kts | 16° |
| 2026-05-03 21:54 | 27.76421 | -82.63139 | 39 ft | 32 kts | 54° |
| 2026-05-03 21:55 | 27.76580 | -82.62801 | 91 ft | 60 kts | 59° |
| 2026-05-03 21:55 | 27.76796 | -82.62348 | 185 ft | 69 kts | 60° |
| 2026-05-03 21:55 | 27.77015 | -82.61878 | 265 ft | 68 kts | 59° |
| 2026-05-03 21:55 | 27.77253 | -82.61386 | 276 ft | 77 kts | 57° |
| 2026-05-03 21:56 | 27.77394 | -82.60808 | 299 ft | 78 kts | 95° |
| 2026-05-03 21:56 | 27.77096 | -82.60350 | 438 ft | 69 kts | 146° |
| 2026-05-03 21:56 | 27.76623 | -82.60270 | 549 ft | 76 kts | 176° |
| 2026-05-03 21:56 | 27.76039 | -82.60287 | 571 ft | 89 kts | 175° |
| 2026-05-03 21:57 | 27.75397 | -82.60312 | 599 ft | 94 kts | 176° |
| 2026-05-03 21:57 | 27.74733 | -82.60375 | 661 ft | 95 kts | 189° |
| 2026-05-03 21:57 | 27.74254 | -82.61024 | 679 ft | 124 kts | 253° |
| 2026-05-03 21:57 | 27.74131 | -82.62031 | 674 ft | 135 kts | 266° |
| 2026-05-03 21:58 | 27.74063 | -82.63097 | 701 ft | 137 kts | 267° |
| 2026-05-03 21:58 | 27.74016 | -82.64172 | 724 ft | 137 kts | 268° |
| 2026-05-03 21:58 | 27.73978 | -82.65256 | 732 ft | 138 kts | 269° |
| 2026-05-03 21:58 | 27.73958 | -82.66343 | 727 ft | 138 kts | 270° |
| 2026-05-03 21:59 | 27.73942 | -82.67427 | 735 ft | 137 kts | 269° |
| 2026-05-03 21:59 | 27.73919 | -82.68508 | 735 ft | 138 kts | 267° |
| 2026-05-03 21:59 | 27.73882 | -82.69595 | 737 ft | 138 kts | 268° |
| 2026-05-03 21:59 | 27.73844 | -82.70683 | 720 ft | 140 kts | 268° |
| 2026-05-03 22:00 | 27.73779 | -82.71782 | 690 ft | 140 kts | 265° |
| 2026-05-03 22:00 | 27.73704 | -82.72885 | 659 ft | 140 kts | 269° |
| 2026-05-03 22:00 | 27.73860 | -82.73952 | 670 ft | 134 kts | 287° |
| 2026-05-03 22:00 | 27.74303 | -82.74861 | 691 ft | 131 kts | 309° |
| 2026-05-03 22:01 | 27.74949 | -82.75571 | 731 ft | 129 kts | 320° |
| 2026-05-03 22:01 | 27.75687 | -82.76108 | 777 ft | 125 kts | 338° |
| 2026-05-03 22:01 | 27.76511 | -82.76470 | 781 ft | 127 kts | 338° |
| 2026-05-03 22:01 | 27.77359 | -82.76821 | 725 ft | 131 kts | 341° |
| 2026-05-03 22:02 | 27.78242 | -82.76808 | 701 ft | 127 kts | 15° |
| 2026-05-03 22:02 | 27.79044 | -82.76435 | 753 ft | 122 kts | 19° |
| 2026-05-03 22:02 | 27.79852 | -82.76096 | 737 ft | 125 kts | 15° |
| 2026-05-03 22:02 | 27.80700 | -82.75803 | 694 ft | 127 kts | 10° |
| 2026-05-03 22:03 | 27.81573 | -82.75629 | 671 ft | 127 kts | 352° |
| 2026-05-03 22:03 | 27.82441 | -82.75772 | 720 ft | 121 kts | 347° |
| 2026-05-03 22:03 | 27.83256 | -82.75911 | 841 ft | 116 kts | 351° |
| 2026-05-03 22:03 | 27.84041 | -82.76054 | 846 ft | 110 kts | 340° |
| 2026-05-03 22:04 | 27.84620 | -82.76464 | 888 ft | 91 kts | 310° |
| 2026-05-03 22:04 | 27.84947 | -82.77037 | 862 ft | 83 kts | 280° |
| 2026-05-03 22:04 | 27.85015 | -82.77671 | 712 ft | 79 kts | 268° |
| 2026-05-03 22:04 | 27.85021 | -82.78256 | 567 ft | 70 kts | 276° |
| 2026-05-03 22:05 | 27.85045 | -82.78770 | 435 ft | 58 kts | 272° |
| 2026-05-03 22:05 | 27.85053 | -82.79135 | 246 ft | 38 kts | 271° |
| 2026-05-03 22:05 | 27.85062 | -82.79376 | 122 ft | 23 kts | 274° |
| 2026-05-03 22:05 | 27.85067 | -82.79478 | 41 ft | 1 kts | 269° |
| 2026-05-03 22:06 | 27.85068 | -82.79482 | 33 ft | 0 kts | 270° |
| 2026-05-03 22:08 | 27.85068 | -82.79487 | 101 ft | 5 kts | 270° |
| 2026-05-03 22:08 | 27.85132 | -82.79621 | 222 ft | 43 kts | 309° |
| 2026-05-03 22:09 | 27.85467 | -82.79946 | 386 ft | 81 kts | 320° |
| 2026-05-03 22:09 | 27.86047 | -82.80260 | 485 ft | 104 kts | 344° |
| 2026-05-03 22:09 | 27.86805 | -82.80376 | 580 ft | 112 kts | 355° |
| 2026-05-03 22:10 | 27.88464 | -82.80305 | 573 ft | 123 kts | 18° |
| 2026-05-03 22:10 | 27.89081 | -82.79672 | 621 ft | 120 kts | 56° |
| 2026-05-03 22:10 | 27.89370 | -82.78780 | 638 ft | 123 kts | 72° |
| 2026-05-03 22:10 | 27.89453 | -82.77820 | 669 ft | 123 kts | 86° |
| 2026-05-03 22:11 | 27.89425 | -82.76851 | 688 ft | 123 kts | 88° |
| 2026-05-03 22:11 | 27.89416 | -82.75888 | 714 ft | 122 kts | 82° |
| 2026-05-03 22:11 | 27.89461 | -82.74919 | 705 ft | 123 kts | 82° |
| 2026-05-03 22:11 | 27.89500 | -82.73943 | 690 ft | 125 kts | 81° |
| 2026-05-03 22:12 | 27.89590 | -82.73002 | 689 ft | 115 kts | 73° |
| 2026-05-03 22:12 | 27.89807 | -82.72160 | 664 ft | 109 kts | 59° |
| 2026-05-03 22:12 | 27.90179 | -82.71440 | 645 ft | 101 kts | 55° |
| 2026-05-03 22:12 | 27.90551 | -82.70774 | 590 ft | 96 kts | 58° |
| 2026-05-03 22:13 | 27.90840 | -82.70185 | 475 ft | 76 kts | 60° |
| 2026-05-03 22:13 | 27.91121 | -82.69746 | 345 ft | 62 kts | 2° |
| 2026-05-03 22:13 | 27.91327 | -82.69995 | 346 ft | 53 kts | 221° |
| 2026-05-03 22:13 | 27.91033 | -82.70133 | 319 ft | 51 kts | 131° |
| 2026-05-03 22:14 | 27.90880 | -82.69852 | 202 ft | 34 kts | 56° |
| 2026-05-03 22:14 | 27.90964 | -82.69724 | 70 ft | 17 kts | 355° |
| 2026-05-03 22:14 | 27.91028 | -82.69706 | 17 ft | 3 kts | 352° |
| 2026-05-03 22:14 | 27.91044 | -82.69705 | 8 ft | 0 kts | 355° |
| 2026-05-03 23:45 | 27.91045 | -82.69705 | 11 ft | 0 kts | 25° |
| 2026-05-03 23:45 | 27.91041 | -82.69668 | 36 ft | 14 kts | 86° |
| 2026-05-03 23:45 | 27.91004 | -82.69494 | 121 ft | 38 kts | 91° |
| 2026-05-03 23:45 | 27.90959 | -82.69017 | 251 ft | 82 kts | 80° |
| 2026-05-03 23:46 | 27.91369 | -82.68582 | 355 ft | 100 kts | 359° |
| 2026-05-03 23:46 | 27.92115 | -82.68658 | 375 ft | 112 kts | 343° |
| 2026-05-03 23:46 | 27.92709 | -82.69180 | 439 ft | 118 kts | 292° |
| 2026-05-03 23:46 | 27.92943 | -82.70112 | 387 ft | 128 kts | 281° |
| 2026-05-03 23:47 | 27.93149 | -82.71090 | 412 ft | 127 kts | 283° |
| 2026-05-03 23:47 | 27.93349 | -82.72071 | 433 ft | 129 kts | 283° |
| 2026-05-03 23:47 | 27.93879 | -82.72730 | 591 ft | 119 kts | 349° |
| 2026-05-03 23:47 | 27.94724 | -82.72786 | 606 ft | 125 kts | 0° |
| 2026-05-03 23:48 | 27.95539 | -82.72445 | 622 ft | 122 kts | 18° |
| 2026-05-03 23:48 | 27.96260 | -82.72390 | 939 ft | 92 kts | 346° |
| 2026-05-03 23:48 | 27.96854 | -82.72311 | 1177 ft | 82 kts | 345° |
| 2026-05-03 23:48 | 27.97369 | -82.72641 | 1223 ft | 99 kts | 302° |
| 2026-05-03 23:49 | 27.97651 | -82.73449 | 1025 ft | 120 kts | 271° |
| 2026-05-03 23:49 | 27.97635 | -82.74238 | 785 ft | 82 kts | 263° |
| 2026-05-03 23:49 | 27.97542 | -82.74732 | 605 ft | 55 kts | 265° |
| 2026-05-03 23:49 | 27.97474 | -82.75120 | 435 ft | 45 kts | 265° |
| 2026-05-03 23:50 | 27.97439 | -82.75422 | 250 ft | 32 kts | 276° |
| 2026-05-03 23:50 | 27.97436 | -82.75547 | 166 ft | 18 kts | 285° |
| 2026-05-03 23:50 | 27.97453 | -82.75617 | 72 ft | 0 kts | 350° |
| 2026-05-03 23:50 | 27.97472 | -82.75614 | 72 ft | 4 kts | 7° |
| 2026-05-03 23:51 | 27.97492 | -82.75610 | 70 ft | 1 kts | 358° |
| 2026-05-03 23:51 | 27.97494 | -82.75609 | 69 ft | 0 kts | 338° |
| 2026-05-03 23:51 | 27.97500 | -82.75618 | 79 ft | 8 kts | 257° |
| 2026-05-03 23:51 | 27.97475 | -82.75674 | 75 ft | 0 kts | 270° |
| 2026-05-03 23:52 | 27.97462 | -82.75722 | 74 ft | 10 kts | 254° |
| 2026-05-03 23:52 | 27.97460 | -82.75765 | 75 ft | 0 kts | 329° |
| 2026-05-03 23:52 | 27.97461 | -82.75765 | 75 ft | 1 kts | 332° |
| 2026-05-03 23:52 | 27.97483 | -82.75779 | 131 ft | 23 kts | 334° |
| 2026-05-03 23:53 | 27.97836 | -82.76003 | 244 ft | 63 kts | 260° |
| 2026-05-03 23:53 | 27.97745 | -82.76084 | 212 ft | 13 kts | 251° |
| 2026-05-03 23:53 | 27.97744 | -82.76216 | 286 ft | 52 kts | 285° |
| 2026-05-03 23:53 | 27.97502 | -82.76135 | 266 ft | 89 kts | 118° |
| 2026-05-03 23:54 | 27.97308 | -82.75657 | 145 ft | 26 kts | 115° |
| 2026-05-03 23:54 | 27.97246 | -82.75604 | 79 ft | 9 kts | 205° |
| 2026-05-03 23:54 | 27.97268 | -82.75659 | 92 ft | 35 kts | 328° |
| 2026-05-03 23:54 | 27.97736 | -82.75918 | 75 ft | 99 kts | 332° |
| 2026-05-03 23:55 | 27.98026 | -82.76073 | 67 ft | 0 kts | 315° |
| 2026-05-03 23:55 | 27.98032 | -82.76073 | 67 ft | 0 kts | 334° |